ADDS TAF Board (Experimental) INFO Settings
IDs: Format: Expanded Condensed

KATL - Atlanta/Hartsfield-J, GA, US

Issued at 0130 UTC 30 Sep 2016
Updated at 0130 UTC 30 Sep 2016
Time0052Z 30/02Z 30/03Z 30/04Z 30/05Z 30/06Z 30/07Z 30/08Z 30/09Z 30/10Z 30/11Z 30/12Z 30/13Z 30/14Z
Type OBS PRVL PRVL PRVL PRVL PRVL PRVL PRVL PRVL PRVL PRVL PRVL PRVL PRVL
VIS 10 >6 >6 >6 >6 >6 >6 >6 >6 >6 >6 >6 >6 >6
CIG -- -- -- -- -- -- -- -- -- -- -- -- -- --
Cover FEW SCT SCT SKC SKC SKC SKC SKC SKC SKC SKC SKC SKC SKC
FltCat VFR VFR VFR VFR VFR VFR VFR VFR VFR VFR VFR VFR VFR VFR
WX -- -- -- -- -- -- -- -- -- -- -- -- -- --
WDir 320 300 300 290 290 290 290 290 290 290 290 290 290 290
WSpd 10 9 9 6 6 6 6 6 6 6 6 6 6 6
WGst -- -- -- -- -- -- -- -- -- -- -- -- -- --
R08/26
XWnd 8 5 5 2 2 2 2 2 2 2 2 2 2 2
HWnd -6 -8 -8 -6 -6 -6 -6 -6 -6 -6 -6 -6 -6 -6
R09/27
XWnd 8 5 5 2 2 2 2 2 2 2 2 2 2 2
HWnd -6 -8 -8 -6 -6 -6 -6 -6 -6 -6 -6 -6 -6 -6
R10/28
XWnd 8 5 5 2 2 2 2 2 2 2 2 2 2 2
HWnd -6 -8 -8 -6 -6 -6 -6 -6 -6 -6 -6 -6 -6 -6

Raw TAF
KATL 300130Z 3002/0106 30009KT P6SM SCT070
  FM300400 29006KT P6SM SKC
  FM301800 28009KT P6SM FEW045
  FM010000 30005KT P6SM SKC


Raw METAR
KATL 300052Z 32010KT 10SM FEW075 19/07 A3004 RMK AO2 SLP166 T01940072
KATL 292352Z 31008KT 10SM FEW075 21/06 A3002 RMK AO2 SLP159 T02110061 10256 20211 53010
KATL 292252Z 31011KT 10SM FEW075 23/06 A3000 RMK AO2 SLP154 T02280061

METAR Board
Radar Display
Forecast Discussion

TAF Board Legend

Potential Impact
Threat None Slight Moderate High
Visibility (sm) ≥5.1 5.1>X≥3 3>X≥1 <1
Ceiling (100 ft) ≥30.1 30.1>X≥10 10>X≥5 <5
Wind Speed (kt) <10 10≤X<20 20≤X<30 ≥30
Wind Gust (kt) <15 15≤X<25 25≤X<35 ≥35
Weather No Wx Reported VCTS,-TS,-FZRA,SN TS,FZRA +TS,+FZRA,+SN